Historyczne dane pomiarowe

Dodano dane terminowe – wersja testowa.

Dane z okresu 1951-2019

Wersja bazy: 1.34 [2019-03-16, lista zmian], aktualizacja planowana na 2019-04-15

Dane meteo z obszaru Polski uzyskane na podstawie danych udostępnionych przez Instytut Meteorologii i Gospodarki Wodnej – Państwowy Instytut Badawczy.

 

Wybierz Datę:    

       

TemperaturaWilgotnośćWiatrCiśnienieOpadyŚniegCzas trwania zjawisk
 Stacja t tx tn tng RH VA  wxwx mslp ppp RRR   cm mm wxwxwxwxwxwxwx
1999-08-14 15.4 19.7 9.5--- 5.0 0.3---- 0.0------------
1999-08-13 16.7 21.5 13.8--- 6.0 2.3---- 0.0------------
1999-08-12 16.9 21.9 13.5--- 5.0 1.7---- 0.3------------
1999-08-11 19.1 24.3 16.5--- 5.7 0.7---- 4.5------------
1999-08-10 19.3 25.7 13.7--- 6.3 1.0---- 14.5------------
1999-08-09 21.5 28.0 15.5--- 4.3 1.0---- 0.0------------
1999-08-08 16.9 22.4 11.9--- 8.0 1.3---- 6.6------------
1999-08-07 20.0 27.6 11.3--- 3.7 1.3---- 0.0------------
1999-08-06 19.7 28.8 9.6--- 0.7 1.0---- 0.0------------
1999-08-05 18.9 27.6 8.4--- 1.7 0.3---- 0.0------------
1999-08-04 18.2 26.3 7.9--- 0.7 0.3---- 0.0------------
1999-08-03 18.1 25.6 8.0--- 1.7 0.7---- 0.0------------
1999-08-02 18.2 25.5 8.0--- 1.0 0.7---- 0.0------------
1999-08-01 18.2 25.0 8.4--- 2.0 1.3---- 0.0------------
1999-07-31 18.7 25.8 8.1--- 0.0 1.7---- 0.0------------
1999-07-30 17.4 25.2 8.6--- 2.0 1.0---- 0.0------------
1999-07-29 18.0 24.9 8.9--- 1.0 1.7---- 0.0------------
1999-07-28 18.2 24.5 10.8--- 2.0 2.3---- 0.0------------
1999-07-27 17.0 24.2 9.0--- 1.3 0.7---- 0.0------------
1999-07-26 17.9 23.0 12.2--- 6.0 0.7---- 0.0------------
1999-07-25 19.0 24.9 14.5--- 7.0 2.0---- 0.0------------
1999-07-24 18.9 24.2 12.8--- 2.3 1.7---- 0.0------------
1999-07-23 17.5 22.0 10.4--- 4.7 1.3---- 0.0------------
1999-07-22 18.7 22.4 15.7--- 4.7 1.3---- 0.0------------
1999-07-21 20.0 28.5 14.0--- 6.0 1.0---- 5.1------------
1999-07-20 20.9 27.8 11.9--- 0.0 0.7---- 0.0------------
1999-07-19 20.4 25.4 13.1--- 1.0 1.0---- 0.0------------
1999-07-18 18.4 25.4 9.2--- 3.3 1.3---- 0.0------------
1999-07-17 16.8 22.5 9.0--- 3.0 1.7---- 0.0------------
1999-07-16 16.5 21.2 12.2--- 4.3 2.0---- 0.3------------
1999-07-15 17.0 22.0 14.6--- 8.0 1.7---- 5.5------------
1999-07-14 21.8 26.9 16.6--- 6.0 1.3---- 18.2------------
1999-07-13 22.5 29.4 14.4--- 3.7 1.3---- 0.0------------
1999-07-12 22.3 29.0 12.4--- 1.0 0.7---- 0.0------------
1999-07-11 21.6 28.3 11.1--- 0.0 1.0---- 0.0------------
1999-07-10 19.7 25.2 10.9--- 0.0 1.7---- 0.0------------
1999-07-09 19.0 24.2 13.2--- 0.3 1.7---- 0.0------------
1999-07-08 18.8 22.9 16.2--- 8.0 2.0---- 1.0------------
1999-07-07 19.6 26.7 16.1--- 8.0 0.7---- 7.1------------
1999-07-06 26.6 32.2 22.3--- 2.0 1.3---- 3.2------------
1999-07-05 23.8 30.5 15.9--- 0.3 0.7---- 0.0------------
1999-07-04 22.6 29.5 12.7--- 2.7 2.0---- 0.0------------
1999-07-03 17.8 24.3 8.9--- 3.7 1.7---- 0.0------------
1999-07-02 17.8 23.2 12.7--- 5.3 1.3---- 0.3------------
1999-07-01 20.4 26.4 10.3--- 1.7 0.0---- 0.0------------
1999-06-30 18.0 24.1 7.5--- 0.7 0.0---- 0.0------------
1999-06-29 19.5 25.7 15.6--- 3.7 2.3---- 4.9------------
1999-06-28 20.7 26.7 9.7--- 1.3 1.0---- 0.0------------
1999-06-27 18.6 24.5 10.7--- 0.3 2.0---- 0.0------------
1999-06-26 13.9 19.9 5.2--- 1.7 1.3---- 0.0------------
1999-06-25 10.9 12.1 9.9--- 7.7 1.0---- 1.8------------
1999-06-24 12.0 14.6 10.0--- 8.0 1.0---- 11.0------------
1999-06-23 14.0 17.6 11.6--- 8.0 2.0---- 11.2------------
1999-06-22 16.3 21.3 13.1--- 8.0 0.7---- 11.6------------
1999-06-21 19.2 22.9 16.8--- 3.7 1.0---- 2.0------------
1999-06-20 18.9 24.7 12.5--- 2.3 0.7---- 0.0------------
1999-06-19 20.2 28.0 14.3--- 2.0 0.7---- 7.1------------
1999-06-18 18.5 22.5 14.5--- 6.7 1.0---- 0.0------------
1999-06-17 18.8 23.9 14.0--- 8.0 1.0---- 14.2------------
1999-06-16 17.3 20.4 14.6--- 8.0 2.3---- 0.0------------
309.2 ms

 

Źródłem pochodzenia danych jest Instytut Meteorologii i Gospodarki Wodnej – Państwowy Instytut Badawczy. Dane Instytutu Meteorologii i Gospodarki Wodnej – Państwowego Instytutu Badawczego zostały przetworzone.

Dane źródłowe można odnaleźć na stronie https://dane.imgw.pl